Station Historical Data
Daily Summary for March 4, 2017 Units:  English    Metric   Both
Next Day »
Daily Weekly Monthly Yearly Custom
  High: Low: Average:
Temperature: 50.0 °F 39.2 °F 44.5 °F
Dew Point: 41.7 °F 33.5 °F 38.7 °F
Humidity: 92% 67% 80%
Wind Speed: 22.0mph 0.0mph 5.7mph
Wind Gust: 27.0mph - -
Wind- - South
Pressure: 30.02 in 29.80 in -
Precipitation: 0.01 in    
Historical Graphs
 
 
Tabular Data for March 4, 2017
Time Temperature Dew Point Pressure Wind Wind Speed Wind Gust Humidity Rainfall Rate (Hourly) solar Conditions
00:04 44.1 °F 37.4 °F 30.01 in Calm   7.0 mph 77% 0.00 in 0.00 W/m2
00:09 44.0 °F 37.6 °F 30.02 in SE 6.0 mph 12.0 mph 78% 0.00 in 0.00 W/m2
00:14 44.0 °F 37.3 °F 30.01 in SE 6.0 mph 12.0 mph 77% 0.00 in 0.00 W/m2
00:15 44.0 °F 37.3 °F 30.01 in Calm   13.0 mph 77% 0.00 in 0.00 W/m2
00:20 43.9 °F 37.2 °F 30.01 in Calm   8.0 mph 77% 0.00 in 0.00 W/m2
00:25 43.9 °F 37.5 °F 30.01 in Calm   11.0 mph 78% 0.00 in 0.00 W/m2
00:30 43.9 °F 37.5 °F 30.01 in Calm   12.0 mph 78% 0.00 in 0.00 W/m2
00:35 43.9 °F 37.2 °F 30.01 in Calm   7.0 mph 77% 0.00 in 0.00 W/m2
00:40 43.9 °F 37.2 °F 30.01 in Calm   7.0 mph 77% 0.00 in 0.00 W/m2
00:45 43.9 °F 37.2 °F 30.01 in SE 5.0 mph 9.0 mph 77% 0.00 in 0.00 W/m2
00:50 43.9 °F 37.2 °F 30.01 in ESE 1.0 mph 12.0 mph 77% 0.00 in 0.00 W/m2
00:55 43.8 °F 36.7 °F 30.00 in SE 2.0 mph 13.0 mph 76% 0.00 in 0.00 W/m2
01:00 43.8 °F 36.7 °F 30.00 in SE 7.0 mph 8.0 mph 76% 0.00 in 0.00 W/m2
01:05 43.8 °F 36.7 °F 30.00 in Calm   9.0 mph 76% 0.00 in 0.00 W/m2
01:10 43.8 °F 36.4 °F 30.00 in SE 1.0 mph 14.0 mph 75% 0.00 in 0.00 W/m2
01:15 43.7 °F 36.0 °F 30.00 in SE 2.0 mph 6.0 mph 74% 0.00 in 0.00 W/m2
01:20 43.7 °F 36.3 °F 30.00 in Calm   6.0 mph 75% 0.00 in 0.00 W/m2
01:25 43.7 °F 36.3 °F 30.00 in Calm   16.0 mph 75% 0.00 in 0.00 W/m2
01:30 43.7 °F 36.3 °F 30.01 in SE 1.0 mph 7.0 mph 75% 0.00 in 0.00 W/m2
01:35 43.6 °F 35.9 °F 30.01 in Calm     74% 0.00 in 0.00 W/m2
01:40 43.6 °F 35.9 °F 30.00 in Calm     74% 0.00 in 0.00 W/m2
01:45 43.5 °F 35.8 °F 30.00 in SE 5.0 mph 7.0 mph 74% 0.00 in 0.00 W/m2
01:50 43.4 °F 35.7 °F 29.99 in SE 2.0 mph 8.0 mph 74% 0.00 in 0.00 W/m2
01:55 43.4 °F 36.0 °F 29.99 in Calm   9.0 mph 75% 0.00 in 0.00 W/m2
02:00 43.2 °F 35.5 °F 29.99 in SE 5.0 mph 7.0 mph 74% 0.00 in 0.00 W/m2
02:05 43.1 °F 35.4 °F 29.99 in Calm   5.0 mph 74% 0.00 in 0.00 W/m2
02:10 43.0 °F 35.3 °F 29.99 in Calm     74% 0.00 in 0.00 W/m2
02:15 43.0 °F 35.6 °F 29.99 in SE 2.0 mph 8.0 mph 75% 0.00 in 0.00 W/m2
02:20 42.8 °F 35.4 °F 29.99 in Calm   7.0 mph 75% 0.00 in 0.00 W/m2
02:25 42.7 °F 35.3 °F 29.98 in Calm   6.0 mph 75% 0.00 in 0.00 W/m2
02:30 42.7 °F 35.7 °F 29.98 in SE 4.0 mph 6.0 mph 76% 0.00 in 0.00 W/m2
02:35 42.5 °F 35.5 °F 29.98 in SE 5.0 mph 6.0 mph 76% 0.00 in 0.00 W/m2
02:40 42.4 °F 35.4 °F 29.98 in Calm   7.0 mph 76% 0.00 in 0.00 W/m2
02:45 42.3 °F 35.3 °F 29.98 in Calm   5.0 mph 76% 0.00 in 0.00 W/m2
02:50 42.3 °F 35.3 °F 29.98 in Calm   2.0 mph 76% 0.00 in 0.00 W/m2
02:56 42.2 °F 35.2 °F 29.98 in Calm     76% 0.00 in 0.00 W/m2
03:01 42.2 °F 35.2 °F 29.98 in Calm     76% 0.00 in 0.00 W/m2
03:06 42.1 °F 35.1 °F 29.98 in Calm     76% 0.00 in 0.00 W/m2
03:11 42.1 °F 35.4 °F 29.97 in Calm     77% 0.00 in 0.00 W/m2
03:16 42.0 °F 35.3 °F 29.97 in Calm     77% 0.00 in 0.00 W/m2
03:21 41.9 °F 35.2 °F 29.97 in Calm     77% 0.00 in 0.00 W/m2
03:26 41.8 °F 35.1 °F 29.97 in Calm     77% 0.00 in 0.00 W/m2
03:31 41.7 °F 34.7 °F 29.97 in Calm     76% 0.00 in 0.00 W/m2
03:36 41.6 °F 34.6 °F 29.97 in Calm     76% 0.00 in 0.00 W/m2
03:41 41.5 °F 34.5 °F 29.96 in Calm   5.0 mph 76% 0.00 in 0.00 W/m2
03:46 41.5 °F 34.8 °F 29.96 in Calm     77% 0.00 in 0.00 W/m2
03:51 41.4 °F 34.1 °F 29.96 in Calm     75% 0.00 in 0.00 W/m2
03:56 41.3 °F 34.3 °F 29.97 in Calm     76% 0.00 in 0.00 W/m2
04:01 41.3 °F 34.3 °F 29.97 in Calm     76% 0.00 in 0.00 W/m2
04:06 41.2 °F 34.2 °F 29.96 in Calm   4.0 mph 76% 0.00 in 0.00 W/m2
04:11 41.2 °F 34.5 °F 29.96 in Calm   2.0 mph 77% 0.00 in 0.00 W/m2
04:16 41.3 °F 34.7 °F 29.96 in Calm   4.0 mph 77% 0.00 in 0.00 W/m2
04:21 41.2 °F 34.5 °F 29.96 in Calm     77% 0.00 in 0.00 W/m2
04:26 41.2 °F 34.5 °F 29.97 in Calm     77% 0.00 in 0.00 W/m2
04:31 41.2 °F 34.5 °F 29.97 in Calm     77% 0.00 in 0.00 W/m2
04:36 41.2 °F 34.5 °F 29.97 in Calm     77% 0.00 in 0.00 W/m2
04:41 41.2 °F 34.5 °F 29.97 in Calm   6.0 mph 77% 0.00 in 0.00 W/m2
04:46 41.2 °F 34.5 °F 29.97 in Calm     77% 0.00 in 0.00 W/m2
04:51 41.2 °F 34.5 °F 29.97 in SE 2.0 mph 5.0 mph 77% 0.00 in 0.00 W/m2
04:56 41.1 °F 34.5 °F 29.97 in Calm   8.0 mph 77% 0.00 in 0.00 W/m2
05:01 41.2 °F 34.9 °F 29.97 in Calm   7.0 mph 78% 0.00 in 0.00 W/m2
05:06 41.2 °F 34.2 °F 29.96 in SSE 2.0 mph 13.0 mph 76% 0.00 in 0.00 W/m2
05:11 41.2 °F 34.2 °F 29.96 in Calm   9.0 mph 76% 0.00 in 0.00 W/m2
05:16 41.3 °F 34.3 °F 29.96 in SSE 1.0 mph 10.0 mph 76% 0.00 in 0.00 W/m2
05:21 41.4 °F 33.8 °F 29.97 in SSE 4.0 mph 12.0 mph 74% 0.00 in 0.00 W/m2
05:26 41.5 °F 33.5 °F 29.97 in Calm   7.0 mph 73% 0.00 in 0.00 W/m2
05:31 41.7 °F 33.7 °F 29.97 in Calm   15.0 mph 73% 0.00 in 0.00 W/m2
05:36 41.9 °F 35.2 °F 29.97 in SSE 9.0 mph 12.0 mph 77% 0.00 in 0.00 W/m2
05:41 42.0 °F 34.0 °F 29.97 in SSE 4.0 mph 14.0 mph 73% 0.00 in 0.00 W/m2
05:46 42.2 °F 34.5 °F 29.97 in Calm   10.0 mph 74% 0.00 in 0.00 W/m2
05:51 42.2 °F 34.5 °F 29.97 in Calm   11.0 mph 74% 0.00 in 0.00 W/m2
05:56 42.3 °F 35.0 °F 29.97 in Calm     75% 0.00 in 0.00 W/m2
06:01 42.4 °F 35.7 °F 29.97 in Calm     77% 0.00 in 0.00 W/m2
06:06 42.4 °F 36.0 °F 29.97 in Calm     78% 0.00 in 0.00 W/m2
06:11 42.4 °F 36.0 °F 29.97 in Calm   9.0 mph 78% 0.00 in 0.00 W/m2
06:16 42.5 °F 36.1 °F 29.97 in SE 4.0 mph 5.0 mph 78% 0.00 in 0.00 W/m2
06:21 42.5 °F 36.1 °F 29.97 in Calm   4.0 mph 78% 0.00 in 0.00 W/m2
06:26 42.5 °F 36.1 °F 29.97 in Calm   10.0 mph 78% 0.00 in 0.00 W/m2
06:31 42.4 °F 36.0 °F 29.97 in SSE 8.0 mph 9.0 mph 78% 0.00 in 0.00 W/m2
06:36 42.4 °F 36.0 °F 29.97 in SE 10.0 mph 12.0 mph 78% 0.00 in 5.00 W/m2
06:41 42.4 °F 36.0 °F 29.97 in Calm   12.0 mph 78% 0.00 in 7.00 W/m2
06:46 42.3 °F 36.3 °F 29.97 in Calm   8.0 mph 79% 0.00 in 11.00 W/m2
06:51 42.3 °F 36.3 °F 29.97 in Calm     79% 0.00 in 18.00 W/m2
06:56 42.2 °F 36.2 °F 29.98 in Calm     79% 0.00 in 23.00 W/m2
07:01 42.2 °F 36.2 °F 29.97 in Calm   1.0 mph 79% 0.00 in 28.00 W/m2
07:06 42.2 °F 36.2 °F 29.97 in Calm     79% 0.00 in 32.00 W/m2
07:11 42.2 °F 36.5 °F 29.97 in SE 5.0 mph 5.0 mph 80% 0.00 in 35.00 W/m2
07:16 42.2 °F 36.5 °F 29.98 in Calm     80% 0.00 in 42.00 W/m2
07:21 42.2 °F 36.5 °F 29.98 in SSE 5.0 mph 5.0 mph 80% 0.00 in 58.00 W/m2
07:26 42.2 °F 36.8 °F 29.97 in SSE 6.0 mph 8.0 mph 81% 0.00 in 54.00 W/m2
07:31 42.2 °F 36.8 °F 29.98 in Calm     81% 0.00 in 63.00 W/m2
07:36 42.3 °F 36.9 °F 29.98 in Calm     81% 0.00 in 72.00 W/m2
07:41 42.3 °F 36.9 °F 29.98 in Calm   1.0 mph 81% 0.00 in 74.00 W/m2
07:46 42.4 °F 37.3 °F 29.98 in Calm     82% 0.00 in 72.00 W/m2
07:51 42.4 °F 37.3 °F 29.98 in Calm     82% 0.00 in 79.00 W/m2
07:56 42.4 °F 37.3 °F 29.98 in Calm     82% 0.00 in 88.00 W/m2
08:01 42.4 °F 37.3 °F 29.98 in Calm     82% 0.00 in 97.00 W/m2
08:06 42.4 °F 37.3 °F 29.98 in Calm     82% 0.00 in 111.00 W/m2
08:11 42.5 °F 37.4 °F 29.98 in Calm     82% 0.00 in 100.00 W/m2
08:16 42.6 °F 37.5 °F 29.98 in Calm     82% 0.00 in 105.00 W/m2
08:21 42.6 °F 37.2 °F 29.98 in Calm     81% 0.00 in 132.00 W/m2
08:26 42.7 °F 37.3 °F 29.98 in SSE 6.0 mph 6.0 mph 81% 0.00 in 148.00 W/m2
08:31 42.8 °F 37.4 °F 29.99 in SSE 11.0 mph 12.0 mph 81% 0.00 in 169.00 W/m2
08:36 42.8 °F 37.4 °F 29.99 in South 1.0 mph 10.0 mph 81% 0.00 in 193.00 W/m2
08:41 42.9 °F 37.5 °F 29.99 in SE 2.0 mph 7.0 mph 81% 0.00 in 174.00 W/m2
08:46 43.1 °F 37.7 °F 29.99 in SSE 9.0 mph 10.0 mph 81% 0.00 in 188.00 W/m2
08:51 43.2 °F 37.8 °F 29.99 in SE 2.0 mph 9.0 mph 81% 0.00 in 246.00 W/m2
08:56 43.3 °F 37.9 °F 29.99 in SE 13.0 mph 17.0 mph 81% 0.00 in 236.00 W/m2
09:01 43.5 °F 37.8 °F 29.99 in SE 7.0 mph 11.0 mph 80% 0.00 in 269.00 W/m2
09:06 43.6 °F 37.8 °F 29.99 in SSE 15.0 mph 15.0 mph 80% 0.00 in 267.00 W/m2
09:11 43.7 °F 37.6 °F 29.99 in SSE 14.0 mph 17.0 mph 79% 0.00 in 274.00 W/m2
09:14 43.8 °F 37.7 °F 29.99 in SSE 12.0 mph 17.0 mph 79% 0.00 in 213.00 W/m2
09:19 44.0 °F 37.9 °F 29.99 in Calm   10.0 mph 79% 0.00 in 163.00 W/m2
09:24 44.1 °F 38.0 °F 29.99 in SSE 8.0 mph 16.0 mph 79% 0.00 in 193.00 W/m2
09:29 44.2 °F 38.1 °F 30.00 in SE 8.0 mph 12.0 mph 79% 0.00 in 564.00 W/m2
09:34 44.4 °F 38.6 °F 30.00 in Calm   15.0 mph 80% 0.00 in 587.00 W/m2
09:39 44.6 °F 38.8 °F 30.00 in South 13.0 mph 13.0 mph 80% 0.00 in 585.00 W/m2
09:44 45.0 °F 38.9 °F 29.99 in South 9.0 mph 15.0 mph 79% 0.00 in 591.00 W/m2
09:49 45.4 °F 39.0 °F 30.00 in South 10.0 mph 15.0 mph 78% 0.00 in 647.00 W/m2
09:54 45.8 °F 39.0 °F 30.00 in South 8.0 mph 14.0 mph 77% 0.00 in 664.00 W/m2
09:59 46.2 °F 39.4 °F 30.00 in South 6.0 mph 12.0 mph 77% 0.00 in 652.00 W/m2
10:04 46.4 °F 39.6 °F 30.00 in SSW 11.0 mph 17.0 mph 77% 0.00 in 610.00 W/m2
10:09 46.7 °F 39.5 °F 30.00 in SW 1.0 mph 10.0 mph 76% 0.00 in 684.00 W/m2
10:14 46.8 °F 40.3 °F 30.00 in SW 7.0 mph 11.0 mph 78% 0.00 in 654.00 W/m2
10:19 46.8 °F 40.0 °F 30.00 in SSW 4.0 mph 14.0 mph 77% 0.00 in 670.00 W/m2
10:24 46.8 °F 40.3 °F 30.01 in SSW 2.0 mph 10.0 mph 78% 0.00 in 693.00 W/m2
10:29 46.9 °F 40.4 °F 30.01 in South 5.0 mph 11.0 mph 78% 0.00 in 707.00 W/m2
10:34 47.0 °F 40.5 °F 30.01 in SW 9.0 mph 12.0 mph 78% 0.00 in 749.00 W/m2
10:39 47.2 °F 40.4 °F 30.01 in South 9.0 mph 14.0 mph 77% 0.00 in 744.00 W/m2
10:44 47.2 °F 40.4 °F 30.01 in South 5.0 mph 18.0 mph 77% 0.00 in 758.00 W/m2
10:49 47.4 °F 40.6 °F 30.02 in SW 11.0 mph 12.0 mph 77% 0.00 in 788.00 W/m2
10:54 47.5 °F 41.0 °F 30.02 in SSW 2.0 mph 17.0 mph 78% 0.00 in 954.00 W/m2
10:59 47.7 °F 40.8 °F 30.02 in South 11.0 mph 14.0 mph 77% 0.00 in 415.00 W/m2
11:04 47.8 °F 40.6 °F 30.02 in SSW 4.0 mph 14.0 mph 76% 0.00 in 926.00 W/m2
11:09 47.7 °F 40.5 °F 30.02 in SSW 8.0 mph 14.0 mph 76% 0.00 in 926.00 W/m2
11:14 47.5 °F 40.3 °F 30.02 in SW 8.0 mph 15.0 mph 76% 0.00 in 320.00 W/m2
11:19 47.2 °F 40.4 °F 30.02 in South 13.0 mph 16.0 mph 77% 0.00 in 717.00 W/m2
11:24 47.1 °F 40.6 °F 30.01 in South 4.0 mph 22.0 mph 78% 0.00 in 997.00 W/m2
11:29 47.1 °F 40.3 °F 30.01 in South 4.0 mph 15.0 mph 77% 0.00 in 1016.00 W/m2
11:34 47.2 °F 40.4 °F 30.01 in SSE 15.0 mph 16.0 mph 77% 0.00 in 728.00 W/m2
11:39 47.3 °F 40.1 °F 30.00 in South 9.0 mph 11.0 mph 76% 0.00 in 466.00 W/m2
11:44 47.4 °F 39.9 °F 30.00 in SSE 11.0 mph 14.0 mph 75% 0.00 in 469.00 W/m2
11:49 47.4 °F 39.9 °F 30.00 in SW 14.0 mph 14.0 mph 75% 0.00 in 371.00 W/m2
11:54 47.4 °F 39.9 °F 30.00 in South 4.0 mph 17.0 mph 75% 0.00 in 339.00 W/m2
11:59 47.4 °F 39.5 °F 30.00 in South 8.0 mph 13.0 mph 74% 0.00 in 366.00 W/m2
12:04 47.3 °F 39.8 °F 30.00 in SSW 5.0 mph 11.0 mph 75% 0.00 in 279.00 W/m2
12:09 47.3 °F 40.1 °F 30.00 in South 3.0 mph 14.0 mph 76% 0.00 in 329.00 W/m2
12:14 47.3 °F 40.1 °F 30.00 in SSE 4.0 mph 13.0 mph 76% 0.00 in 297.00 W/m2
12:19 47.2 °F 40.0 °F 30.00 in SSW 13.0 mph 15.0 mph 76% 0.00 in 306.00 W/m2
12:24 47.2 °F 40.0 °F 30.00 in SSE 13.0 mph 14.0 mph 76% 0.00 in 272.00 W/m2
12:29 47.2 °F 40.4 °F 30.00 in SSW 10.0 mph 13.0 mph 77% 0.00 in 241.00 W/m2
12:34 47.1 °F 40.3 °F 30.00 in SSE 10.0 mph 12.0 mph 77% 0.00 in 253.00 W/m2
12:39 47.2 °F 40.7 °F 29.99 in SW 4.0 mph 10.0 mph 78% 0.00 in 329.00 W/m2
12:44 47.2 °F 40.7 °F 29.99 in SSW 3.0 mph 12.0 mph 78% 0.00 in 278.00 W/m2
12:49 47.1 °F 40.9 °F 29.99 in SSW 8.0 mph 14.0 mph 79% 0.00 in 338.00 W/m2
12:54 47.1 °F 40.9 °F 29.99 in Calm   12.0 mph 79% 0.00 in 309.00 W/m2
12:59 47.0 °F 41.2 °F 29.99 in South 7.0 mph 11.0 mph 80% 0.00 in 260.00 W/m2
13:04 47.0 °F 41.2 °F 29.98 in SSW 10.0 mph 14.0 mph 80% 0.00 in 376.00 W/m2
13:09 46.9 °F 41.4 °F 29.98 in SSW 3.0 mph 10.0 mph 81% 0.00 in 415.00 W/m2
13:14 47.0 °F 41.5 °F 29.98 in South 3.0 mph 8.0 mph 81% 0.00 in 540.00 W/m2
13:19 47.2 °F 41.7 °F 29.98 in South 11.0 mph 14.0 mph 81% 0.00 in 541.00 W/m2
13:24 47.4 °F 41.2 °F 29.98 in Calm   7.0 mph 79% 0.00 in 390.00 W/m2
13:29 47.7 °F 41.5 °F 29.97 in South 7.0 mph 17.0 mph 79% 0.00 in 371.00 W/m2
13:34 47.9 °F 41.4 °F 29.97 in South 9.0 mph 16.0 mph 78% 0.00 in 376.00 W/m2
13:39 48.1 °F 41.2 °F 29.97 in SSE 7.0 mph 12.0 mph 77% 0.00 in 283.00 W/m2
13:44 48.3 °F 41.4 °F 29.96 in South 4.0 mph 12.0 mph 77% 0.00 in 283.00 W/m2
13:49 48.5 °F 41.3 °F 29.96 in South 8.0 mph 12.0 mph 76% 0.00 in 770.00 W/m2
13:54 48.6 °F 40.7 °F 29.95 in SSE 8.0 mph 16.0 mph 74% 0.00 in 761.00 W/m2
13:59 48.8 °F 40.2 °F 29.95 in SSE 10.0 mph 15.0 mph 72% 0.00 in 798.00 W/m2
14:04 49.1 °F 40.5 °F 29.95 in South 9.0 mph 18.0 mph 72% 0.00 in 784.00 W/m2
14:09 49.3 °F 39.9 °F 29.95 in South 5.0 mph 14.0 mph 70% 0.00 in 858.00 W/m2
14:14 49.6 °F 40.2 °F 29.95 in SSW 12.0 mph 20.0 mph 70% 0.00 in 687.00 W/m2
14:19 49.9 °F 39.8 °F 29.95 in SSE 2.0 mph 12.0 mph 68% 0.00 in 141.00 W/m2
14:24 50.0 °F 39.9 °F 29.95 in South 9.0 mph 14.0 mph 68% 0.00 in 134.00 W/m2
14:29 49.9 °F 39.4 °F 29.95 in SSW 3.0 mph 15.0 mph 67% 0.00 in 98.00 W/m2
14:34 49.7 °F 39.6 °F 29.95 in SSE 9.0 mph 10.0 mph 68% 0.00 in 146.00 W/m2
14:39 49.5 °F 39.4 °F 29.95 in South 10.0 mph 14.0 mph 68% 0.00 in 239.00 W/m2
14:44 49.3 °F 39.2 °F 29.94 in Calm   16.0 mph 68% 0.00 in 151.00 W/m2
14:49 49.2 °F 39.5 °F 29.94 in SSW 7.0 mph 13.0 mph 69% 0.00 in 77.00 W/m2
14:54 49.1 °F 39.4 °F 29.94 in SW 9.0 mph 12.0 mph 69% 0.00 in 53.00 W/m2
14:59 49.0 °F 39.7 °F 29.94 in South 10.0 mph 20.0 mph 70% 0.00 in 178.00 W/m2
15:04 48.8 °F 39.8 °F 29.94 in SW 12.0 mph 16.0 mph 71% 0.00 in 151.00 W/m2
15:09 48.6 °F 40.0 °F 29.94 in South 6.0 mph 17.0 mph 72% 0.00 in 100.00 W/m2
15:14 48.4 °F 40.2 °F 29.94 in South 15.0 mph 16.0 mph 73% 0.00 in 72.00 W/m2
15:19 48.2 °F 40.3 °F 29.94 in SSE 4.0 mph 12.0 mph 74% 0.00 in 98.00 W/m2
15:24 48.1 °F 40.6 °F 29.93 in South 5.0 mph 14.0 mph 75% 0.00 in 97.00 W/m2
15:29 47.9 °F 40.4 °F 29.94 in SSW 3.0 mph 10.0 mph 75% 0.00 in 23.00 W/m2
15:34 47.8 °F 40.6 °F 29.94 in SSW 8.0 mph 11.0 mph 76% 0.00 in 37.00 W/m2
15:39 47.7 °F 40.8 °F 29.93 in SSW 9.0 mph 11.0 mph 77% 0.00 in 28.00 W/m2
15:44 47.5 °F 40.7 °F 29.93 in SW 6.0 mph 14.0 mph 77% 0.00 in 16.00 W/m2
15:49 47.4 °F 40.6 °F 29.93 in Calm   16.0 mph 77% 0.00 in 58.00 W/m2
15:54 47.2 °F 40.7 °F 29.93 in SW 14.0 mph 14.0 mph 78% 0.00 in 39.00 W/m2
15:59 47.1 °F 40.6 °F 29.93 in SSW 2.0 mph 14.0 mph 78% 0.00 in 51.00 W/m2
16:04 47.0 °F 40.8 °F 29.93 in SW 9.0 mph 17.0 mph 79% 0.00 in 56.00 W/m2
16:09 46.9 °F 41.1 °F 29.93 in South 6.0 mph 14.0 mph 80% 0.00 in 47.00 W/m2
16:14 46.8 °F 41.0 °F 29.93 in SSW 2.0 mph 14.0 mph 80% 0.00 in 33.00 W/m2
16:19 46.7 °F 40.9 °F 29.93 in SSW 10.0 mph 18.0 mph 80% 0.00 in 37.00 W/m2
16:24 46.7 °F 41.2 °F 29.92 in SW 5.0 mph 16.0 mph 81% 0.00 in 28.00 W/m2
16:29 46.6 °F 41.1 °F 29.92 in SSE 8.0 mph 18.0 mph 81% 0.00 in 47.00 W/m2
16:34 46.6 °F 41.1 °F 29.92 in South 13.0 mph 20.0 mph 81% 0.00 in 40.00 W/m2
16:39 46.5 °F 41.0 °F 29.92 in South 16.0 mph 16.0 mph 81% 0.00 in 40.00 W/m2
16:44 46.5 °F 41.0 °F 29.92 in South 10.0 mph 17.0 mph 81% 0.00 in 23.00 W/m2
16:49 46.4 °F 40.9 °F 29.92 in South 13.0 mph 18.0 mph 81% 0.00 in 11.00 W/m2
16:54 46.4 °F 41.2 °F 29.92 in Calm   14.0 mph 82% 0.00 in 11.00 W/m2
16:59 46.3 °F 41.1 °F 29.92 in South 12.0 mph 14.0 mph 82% 0.00 in 9.00 W/m2
17:04 46.3 °F 41.1 °F 29.91 in South 2.0 mph 19.0 mph 82% 0.00 in 7.00 W/m2
17:09 46.2 °F 41.0 °F 29.92 in SSE 11.0 mph 14.0 mph 82% 0.00 in 7.00 W/m2
17:14 46.2 °F 41.3 °F 29.91 in SSW 11.0 mph 18.0 mph 83% 0.00 in 14.00 W/m2
17:19 46.1 °F 41.2 °F 29.91 in South 5.0 mph 16.0 mph 83% 0.00 in 14.00 W/m2
17:24 46.0 °F 41.1 °F 29.91 in SSE 9.0 mph 21.0 mph 83% 0.00 in 7.00 W/m2
17:29 46.0 °F 41.4 °F 29.91 in Calm   15.0 mph 84% 0.00 in 9.00 W/m2
17:34 46.0 °F 41.4 °F 29.91 in South 5.0 mph 15.0 mph 84% 0.00 in 11.00 W/m2
17:39 45.9 °F 41.7 °F 29.90 in South 14.0 mph 16.0 mph 85% 0.00 in 7.00 W/m2
17:44 45.9 °F 41.7 °F 29.90 in South 9.0 mph 18.0 mph 85% 0.00 in 0.00 W/m2
17:46 45.9 °F 41.7 °F 29.90 in South 6.0 mph 14.0 mph 85% 0.00 in 0.00 W/m2
17:51 45.9 °F 41.7 °F 29.90 in SSW 5.0 mph 12.0 mph 85% 0.00 in 0.00 W/m2
17:56 45.8 °F 41.5 °F 29.90 in South 5.0 mph 15.0 mph 85% 0.00 in 0.00 W/m2
18:01 45.8 °F 41.5 °F 29.90 in South 9.0 mph 9.0 mph 85% 0.00 in 0.00 W/m2
18:07 45.7 °F 41.5 °F 29.89 in SSE 10.0 mph 15.0 mph 85% 0.00 in 0.00 W/m2
18:12 45.7 °F 41.5 °F 29.89 in SSW 5.0 mph 12.0 mph 85% 0.00 in 0.00 W/m2
18:17 45.6 °F 41.4 °F 29.89 in South 10.0 mph 15.0 mph 85% 0.00 in 0.00 W/m2
18:22 45.6 °F 41.4 °F 29.90 in South 9.0 mph 10.0 mph 85% 0.00 in 0.00 W/m2
18:27 45.6 °F 41.4 °F 29.90 in SE 15.0 mph 17.0 mph 85% 0.00 in 0.00 W/m2
18:32 45.6 °F 41.7 °F 29.89 in SSW 10.0 mph 13.0 mph 86% 0.00 in 0.00 W/m2
18:37 45.5 °F 41.6 °F 29.89 in SSW 16.0 mph 19.0 mph 86% 0.00 in 0.00 W/m2
18:42 45.5 °F 41.6 °F 29.89 in SSE 13.0 mph 24.0 mph 86% 0.00 in 0.00 W/m2
18:47 45.4 °F 41.5 °F 29.89 in South 10.0 mph 18.0 mph 86% 0.00 in 0.00 W/m2
18:52 45.4 °F 41.5 °F 29.89 in South 11.0 mph 22.0 mph 86% 0.00 in 0.00 W/m2
18:57 45.3 °F 41.4 °F 29.89 in SE 12.0 mph 12.0 mph 86% 0.00 in 0.00 W/m2
19:02 45.2 °F 41.3 °F 29.90 in SSW 4.0 mph 18.0 mph 86% 0.00 in 0.00 W/m2
19:07 45.2 °F 41.3 °F 29.89 in SE 11.0 mph 19.0 mph 86% 0.00 in 0.00 W/m2
19:12 45.1 °F 41.2 °F 29.89 in South 17.0 mph 23.0 mph 86% 0.00 in 0.00 W/m2
19:17 45.2 °F 41.6 °F 29.89 in SSW 15.0 mph 15.0 mph 87% 0.00 in 0.00 W/m2
19:22 45.1 °F 41.5 °F 29.89 in SSE 15.0 mph 20.0 mph 87% 0.00 in 0.00 W/m2
19:27 45.1 °F 41.5 °F 29.88 in SE 7.0 mph 20.0 mph 87% 0.00 in 0.00 W/m2
19:32 45.0 °F 41.7 °F 29.89 in SSE 14.0 mph 15.0 mph 88% 0.00 in 0.00 W/m2
19:37 44.9 °F 41.6 °F 29.88 in South 14.0 mph 14.0 mph 88% 0.00 in 0.00 W/m2
19:42 44.8 °F 41.5 °F 29.88 in South 11.0 mph 18.0 mph 88% 0.00 in 0.00 W/m2
19:47 44.7 °F 41.4 °F 29.87 in SE 6.0 mph 13.0 mph 88% 0.00 in 0.00 W/m2
19:52 44.6 °F 41.3 °F 29.87 in SSE 8.0 mph 13.0 mph 88% 0.00 in 0.00 W/m2
19:57 44.6 °F 41.6 °F 29.87 in South 5.0 mph 15.0 mph 89% 0.00 in 0.00 W/m2
20:02 44.5 °F 41.5 °F 29.86 in SSW 6.0 mph 19.0 mph 89% 0.00 in 0.00 W/m2
20:07 44.4 °F 41.4 °F 29.86 in SW 3.0 mph 13.0 mph 89% 0.00 in 0.00 W/m2
20:12 44.3 °F 41.0 °F 29.86 in South 13.0 mph 17.0 mph 88% 0.00 in 0.00 W/m2
20:17 44.3 °F 41.0 °F 29.85 in South 12.0 mph 17.0 mph 88% 0.00 in 0.00 W/m2
20:22 44.2 °F 40.9 °F 29.85 in SSE 5.0 mph 15.0 mph 88% 0.00 in 0.00 W/m2
20:27 44.2 °F 40.9 °F 29.85 in SSE 6.0 mph 16.0 mph 88% 0.00 in 0.00 W/m2
20:32 44.2 °F 40.9 °F 29.84 in South 16.0 mph 21.0 mph 88% 0.00 in 0.00 W/m2
20:37 44.2 °F 41.2 °F 29.83 in SSW 6.0 mph 13.0 mph 89% 0.00 in 0.00 W/m2
20:42 44.2 °F 41.2 °F 29.84 in SW 6.0 mph 13.0 mph 89% 0.00 in 0.00 W/m2
20:47 44.1 °F 41.4 °F 29.84 in WSW 15.0 mph 15.0 mph 90% 0.27 in 0.00 W/m2
20:52 43.9 °F 41.2 °F 29.84 in SSE 6.0 mph 16.0 mph 90% 0.27 in 0.00 W/m2
20:57 43.6 °F 40.9 °F 29.84 in SSE 9.0 mph 18.0 mph 90% 0.38 in 0.00 W/m2
21:02 43.4 °F 40.7 °F 29.83 in SSW 5.0 mph 16.0 mph 90% 0.17 in 0.00 W/m2
21:07 43.3 °F 40.8 °F 29.83 in SSW 7.0 mph 12.0 mph 91% 0.13 in 0.00 W/m2
21:12 43.2 °F 40.8 °F 29.83 in SW 3.0 mph 10.0 mph 91% 0.33 in 0.00 W/m2
21:17 43.2 °F 40.8 °F 29.83 in South 8.0 mph 16.0 mph 91% 0.63 in 0.00 W/m2
21:22 43.2 °F 40.8 °F 29.82 in SSW 10.0 mph 13.0 mph 91% 0.42 in 0.00 W/m2
21:27 43.1 °F 40.7 °F 29.82 in WSW 15.0 mph 24.0 mph 91% 0.25 in 0.00 W/m2
21:32 43.1 °F 40.7 °F 29.82 in South 6.0 mph 13.0 mph 91% 0.18 in 0.00 W/m2
21:37 43.1 °F 40.7 °F 29.83 in SW 9.0 mph 12.0 mph 91% 0.21 in 0.00 W/m2
21:43 43.1 °F 40.7 °F 29.83 in South 2.0 mph 12.0 mph 91% 0.28 in 0.00 W/m2
21:47 43.1 °F 40.7 °F 29.84 in WSW 7.0 mph 13.0 mph 91% 0.20 in 0.00 W/m2
21:52 43.1 °F 40.7 °F 29.84 in SSW 10.0 mph 15.0 mph 91% 0.71 in 0.00 W/m2
21:57 43.1 °F 40.7 °F 29.84 in South 20.0 mph 21.0 mph 91% 0.33 in 0.00 W/m2
22:02 43.0 °F 40.6 °F 29.84 in SSW 4.0 mph 20.0 mph 91% 0.58 in 0.00 W/m2
22:08 42.9 °F 40.5 °F 29.84 in SW 11.0 mph 25.0 mph 91% 0.99 in 0.00 W/m2
22:13 42.8 °F 40.4 °F 29.83 in SW 5.0 mph 20.0 mph 91% 0.35 in 0.00 W/m2
22:18 42.8 °F 40.4 °F 29.84 in SW 4.0 mph 14.0 mph 91% 0.46 in 0.00 W/m2
22:23 42.7 °F 40.3 °F 29.84 in South 12.0 mph 25.0 mph 91% 0.21 in 0.00 W/m2
22:28 42.6 °F 40.2 °F 29.83 in SSW 19.0 mph 19.0 mph 91% 0.25 in 0.00 W/m2
22:33 42.4 °F 40.0 °F 29.83 in SW 13.0 mph 15.0 mph 91% 0.16 in 0.00 W/m2
22:38 42.4 °F 40.0 °F 29.82 in SW 5.0 mph 22.0 mph 91% 0.16 in 0.00 W/m2
22:43 42.3 °F 39.9 °F 29.82 in SSW 3.0 mph 15.0 mph 91% 0.14 in 0.00 W/m2
22:48 42.3 °F 39.9 °F 29.82 in South 7.0 mph 16.0 mph 91% 0.06 in 0.00 W/m2
22:53 42.3 °F 39.9 °F 29.81 in SW 6.0 mph 15.0 mph 91% 0.06 in 0.00 W/m2
22:58 42.3 °F 39.9 °F 29.80 in South 11.0 mph 18.0 mph 91% 0.06 in 0.00 W/m2
23:03 42.3 °F 39.9 °F 29.80 in South 7.0 mph 15.0 mph 91% 0.04 in 0.00 W/m2
23:08 42.2 °F 39.8 °F 29.80 in SSW 8.0 mph 19.0 mph 91% 0.25 in 0.00 W/m2
23:13 42.2 °F 39.8 °F 29.80 in SSW 6.0 mph 23.0 mph 91% 0.28 in 0.00 W/m2
23:18 42.2 °F 39.8 °F 29.80 in SSW 12.0 mph 24.0 mph 91% 0.31 in 0.00 W/m2
23:23 42.0 °F 39.6 °F 29.81 in SSW 22.0 mph 24.0 mph 91% 0.58 in 0.00 W/m2
23:28 41.6 °F 39.2 °F 29.81 in WSW 9.0 mph 17.0 mph 91% 0.51 in 0.00 W/m2
23:33 41.5 °F 39.1 °F 29.81 in SSW 13.0 mph 26.0 mph 91% 0.27 in 0.00 W/m2
23:38 41.5 °F 39.1 °F 29.81 in WSW 5.0 mph 24.0 mph 91% 0.56 in 0.00 W/m2
23:43 41.3 °F 38.9 °F 29.82 in SSW 9.0 mph 27.0 mph 91% 0.28 in 0.00 W/m2
23:48 40.9 °F 38.5 °F 29.82 in SW 14.0 mph 25.0 mph 91% 0.26 in 0.00 W/m2
23:53 40.2 °F 37.8 °F 29.83 in WSW 9.0 mph 21.0 mph 91% 0.14 in 0.00 W/m2
23:58 39.2 °F 37.1 °F 29.82 in Calm   24.0 mph 92% 0.12 in 0.00 W/m2
Foresthill Weather
 WU-history PHP script courtesy of   Juneau County Weather.
powered by Cumulus v1.9.3 (1059)
Ambient Weather VWS v14.00
Top Contact Website Map Copyright © 2007 - 2018 Foresthillweather.com Never base important decisions on this or any weather information obtained from the Internet